sensor_id;sensor_type;location;lat;lon;timestamp;P1;durP1;ratioP1;P2;durP2;ratioP2
29550;SDS011;16488;52.396;10.696;2022-07-29T00:01:52;5.07;;;1.57;;
29550;SDS011;16488;52.396;10.696;2022-07-29T00:04:18;1.60;;;1.03;;
29550;SDS011;16488;52.396;10.696;2022-07-29T00:06:44;6.43;;;2.53;;
29550;SDS011;16488;52.396;10.696;2022-07-29T00:09:10;4.03;;;1.60;;
29550;SDS011;16488;52.396;10.696;2022-07-29T00:11:35;3.15;;;1.30;;
29550;SDS011;16488;52.396;10.696;2022-07-29T00:14:01;2.33;;;1.23;;
29550;SDS011;16488;52.396;10.696;2022-07-29T00:16:27;5.37;;;1.63;;
29550;SDS011;16488;52.396;10.696;2022-07-29T00:18:52;2.37;;;1.53;;
29550;SDS011;16488;52.396;10.696;2022-07-29T00:21:18;5.70;;;1.53;;
29550;SDS011;16488;52.396;10.696;2022-07-29T00:23:43;5.55;;;1.65;;
29550;SDS011;16488;52.396;10.696;2022-07-29T00:26:09;4.43;;;1.47;;
29550;SDS011;16488;52.396;10.696;2022-07-29T00:28:34;4.55;;;1.73;;
29550;SDS011;16488;52.396;10.696;2022-07-29T00:31:00;7.80;;;1.60;;
29550;SDS011;16488;52.396;10.696;2022-07-29T00:33:26;5.83;;;1.63;;
29550;SDS011;16488;52.396;10.696;2022-07-29T00:35:51;8.53;;;3.50;;
29550;SDS011;16488;52.396;10.696;2022-07-29T00:38:17;3.77;;;1.40;;
29550;SDS011;16488;52.396;10.696;2022-07-29T00:40:45;5.15;;;1.58;;
29550;SDS011;16488;52.396;10.696;2022-07-29T00:43:11;5.72;;;1.77;;
29550;SDS011;16488;52.396;10.696;2022-07-29T00:45:38;5.07;;;1.45;;
29550;SDS011;16488;52.396;10.696;2022-07-29T00:48:04;3.92;;;1.83;;
29550;SDS011;16488;52.396;10.696;2022-07-29T00:50:31;3.90;;;1.50;;
29550;SDS011;16488;52.396;10.696;2022-07-29T00:55:24;5.00;;;2.35;;
29550;SDS011;16488;52.396;10.696;2022-07-29T00:57:50;3.10;;;1.40;;
29550;SDS011;16488;52.396;10.696;2022-07-29T01:00:18;6.32;;;1.20;;
29550;SDS011;16488;52.396;10.696;2022-07-29T01:02:46;5.45;;;1.60;;
29550;SDS011;16488;52.396;10.696;2022-07-29T01:05:15;3.13;;;1.30;;
29550;SDS011;16488;52.396;10.696;2022-07-29T01:07:43;2.50;;;1.40;;
29550;SDS011;16488;52.396;10.696;2022-07-29T01:10:11;10.88;;;2.08;;
29550;SDS011;16488;52.396;10.696;2022-07-29T01:12:38;5.13;;;1.65;;
29550;SDS011;16488;52.396;10.696;2022-07-29T01:15:05;9.82;;;1.98;;
29550;SDS011;16488;52.396;10.696;2022-07-29T01:17:33;4.05;;;1.75;;
29550;SDS011;16488;52.396;10.696;2022-07-29T01:26:04;8.30;;;1.98;;
29550;SDS011;16488;52.396;10.696;2022-07-29T01:32:07;12.23;;;1.42;;
29550;SDS011;16488;52.396;10.696;2022-07-29T01:34:48;4.13;;;1.40;;
29550;SDS011;16488;52.396;10.696;2022-07-29T01:37:24;2.95;;;1.50;;
29550;SDS011;16488;52.396;10.696;2022-07-29T01:39:57;4.68;;;1.85;;
29550;SDS011;16488;52.396;10.696;2022-07-29T01:42:34;1.95;;;1.20;;
29550;SDS011;16488;52.396;10.696;2022-07-29T01:45:23;5.38;;;2.08;;
29550;SDS011;16488;52.396;10.696;2022-07-29T01:48:00;5.40;;;1.70;;
29550;SDS011;16488;52.396;10.696;2022-07-29T01:50:31;3.45;;;1.63;;
29550;SDS011;16488;52.396;10.696;2022-07-29T01:53:00;3.10;;;1.48;;
29550;SDS011;16488;52.396;10.696;2022-07-29T01:55:31;3.97;;;1.60;;
29550;SDS011;16488;52.396;10.696;2022-07-29T01:57:59;2.33;;;1.35;;
29550;SDS011;16488;52.396;10.696;2022-07-29T02:00:27;9.43;;;2.00;;
29550;SDS011;16488;52.396;10.696;2022-07-29T02:02:56;4.78;;;1.60;;
29550;SDS011;16488;52.396;10.696;2022-07-29T02:05:27;6.53;;;2.20;;
29550;SDS011;16488;52.396;10.696;2022-07-29T02:07:54;5.68;;;1.90;;
29550;SDS011;16488;52.396;10.696;2022-07-29T02:10:23;3.63;;;1.83;;
29550;SDS011;16488;52.396;10.696;2022-07-29T02:12:54;5.93;;;1.92;;
29550;SDS011;16488;52.396;10.696;2022-07-29T02:15:20;6.25;;;1.70;;
29550;SDS011;16488;52.396;10.696;2022-07-29T02:17:55;4.65;;;2.03;;
29550;SDS011;16488;52.396;10.696;2022-07-29T02:20:31;3.10;;;1.70;;
29550;SDS011;16488;52.396;10.696;2022-07-29T02:22:58;4.18;;;2.03;;
29550;SDS011;16488;52.396;10.696;2022-07-29T02:25:25;6.10;;;1.65;;
29550;SDS011;16488;52.396;10.696;2022-07-29T02:27:52;4.03;;;1.73;;
29550;SDS011;16488;52.396;10.696;2022-07-29T02:30:19;5.53;;;1.92;;
29550;SDS011;16488;52.396;10.696;2022-07-29T02:32:47;6.30;;;2.10;;
29550;SDS011;16488;52.396;10.696;2022-07-29T02:35:15;8.90;;;2.28;;
29550;SDS011;16488;52.396;10.696;2022-07-29T02:37:42;4.38;;;2.03;;
29550;SDS011;16488;52.396;10.696;2022-07-29T02:40:12;3.60;;;1.88;;
29550;SDS011;16488;52.396;10.696;2022-07-29T02:42:41;3.45;;;1.70;;
29550;SDS011;16488;52.396;10.696;2022-07-29T02:45:09;4.75;;;1.83;;
29550;SDS011;16488;52.396;10.696;2022-07-29T02:50:09;9.55;;;2.33;;
29550;SDS011;16488;52.396;10.696;2022-07-29T02:52:54;4.25;;;1.90;;
29550;SDS011;16488;52.396;10.696;2022-07-29T02:55:33;8.38;;;2.03;;
29550;SDS011;16488;52.396;10.696;2022-07-29T03:00:40;5.10;;;1.88;;
29550;SDS011;16488;52.396;10.696;2022-07-29T03:03:07;7.18;;;1.60;;
29550;SDS011;16488;52.396;10.696;2022-07-29T03:05:37;4.18;;;1.95;;
29550;SDS011;16488;52.396;10.696;2022-07-29T03:08:04;2.55;;;1.60;;
29550;SDS011;16488;52.396;10.696;2022-07-29T03:10:31;5.78;;;1.75;;
29550;SDS011;16488;52.396;10.696;2022-07-29T03:15:24;4.57;;;2.05;;
29550;SDS011;16488;52.396;10.696;2022-07-29T03:17:50;2.63;;;1.67;;
29550;SDS011;16488;52.396;10.696;2022-07-29T03:20:17;3.50;;;2.05;;
29550;SDS011;16488;52.396;10.696;2022-07-29T03:22:43;3.78;;;2.15;;
29550;SDS011;16488;52.396;10.696;2022-07-29T03:25:12;16.45;;;2.40;;
29550;SDS011;16488;52.396;10.696;2022-07-29T03:27:40;5.80;;;1.95;;
29550;SDS011;16488;52.396;10.696;2022-07-29T03:30:06;5.22;;;1.83;;
29550;SDS011;16488;52.396;10.696;2022-07-29T03:32:33;6.50;;;2.20;;
29550;SDS011;16488;52.396;10.696;2022-07-29T03:34:59;7.32;;;1.92;;
29550;SDS011;16488;52.396;10.696;2022-07-29T03:37:25;5.20;;;2.80;;
29550;SDS011;16488;52.396;10.696;2022-07-29T03:39:51;3.80;;;2.10;;
29550;SDS011;16488;52.396;10.696;2022-07-29T03:42:19;8.90;;;2.42;;
29550;SDS011;16488;52.396;10.696;2022-07-29T03:44:48;5.00;;;2.22;;
29550;SDS011;16488;52.396;10.696;2022-07-29T03:47:15;4.40;;;2.22;;
29550;SDS011;16488;52.396;10.696;2022-07-29T03:49:45;4.75;;;2.50;;
29550;SDS011;16488;52.396;10.696;2022-07-29T03:52:14;5.60;;;2.55;;
29550;SDS011;16488;52.396;10.696;2022-07-29T03:54:40;6.38;;;2.13;;
29550;SDS011;16488;52.396;10.696;2022-07-29T03:57:06;8.02;;;2.60;;
29550;SDS011;16488;52.396;10.696;2022-07-29T03:59:34;5.18;;;2.38;;
29550;SDS011;16488;52.396;10.696;2022-07-29T04:02:02;5.20;;;2.67;;
29550;SDS011;16488;52.396;10.696;2022-07-29T04:04:30;8.32;;;2.75;;
29550;SDS011;16488;52.396;10.696;2022-07-29T04:06:59;12.52;;;3.00;;
29550;SDS011;16488;52.396;10.696;2022-07-29T04:09:25;9.68;;;2.83;;
29550;SDS011;16488;52.396;10.696;2022-07-29T04:11:51;7.27;;;2.50;;
29550;SDS011;16488;52.396;10.696;2022-07-29T04:16:43;6.97;;;2.65;;
29550;SDS011;16488;52.396;10.696;2022-07-29T04:19:08;6.13;;;2.50;;
29550;SDS011;16488;52.396;10.696;2022-07-29T04:21:38;7.97;;;2.93;;
29550;SDS011;16488;52.396;10.696;2022-07-29T04:24:04;6.38;;;3.28;;
29550;SDS011;16488;52.396;10.696;2022-07-29T04:26:31;5.55;;;2.38;;
29550;SDS011;16488;52.396;10.696;2022-07-29T04:28:56;6.83;;;3.20;;
29550;SDS011;16488;52.396;10.696;2022-07-29T04:31:22;7.87;;;3.00;;
29550;SDS011;16488;52.396;10.696;2022-07-29T04:33:47;5.77;;;2.47;;
29550;SDS011;16488;52.396;10.696;2022-07-29T04:36:13;8.00;;;3.00;;
29550;SDS011;16488;52.396;10.696;2022-07-29T04:38:38;8.83;;;3.13;;
29550;SDS011;16488;52.396;10.696;2022-07-29T04:41:04;8.68;;;2.83;;
29550;SDS011;16488;52.396;10.696;2022-07-29T04:43:31;6.75;;;3.00;;
29550;SDS011;16488;52.396;10.696;2022-07-29T04:46:01;10.77;;;2.42;;
29550;SDS011;16488;52.396;10.696;2022-07-29T04:48:27;8.18;;;2.70;;
29550;SDS011;16488;52.396;10.696;2022-07-29T04:50:56;3.87;;;2.43;;
29550;SDS011;16488;52.396;10.696;2022-07-29T04:53:21;7.38;;;2.90;;
29550;SDS011;16488;52.396;10.696;2022-07-29T04:55:47;11.18;;;2.90;;
29550;SDS011;16488;52.396;10.696;2022-07-29T04:58:13;6.35;;;3.30;;
29550;SDS011;16488;52.396;10.696;2022-07-29T05:00:38;6.70;;;3.33;;
29550;SDS011;16488;52.396;10.696;2022-07-29T05:03:04;7.57;;;3.10;;
29550;SDS011;16488;52.396;10.696;2022-07-29T05:05:30;5.20;;;3.03;;
29550;SDS011;16488;52.396;10.696;2022-07-29T05:07:55;6.30;;;2.92;;
29550;SDS011;16488;52.396;10.696;2022-07-29T05:10:21;4.60;;;2.92;;
29550;SDS011;16488;52.396;10.696;2022-07-29T05:12:47;6.97;;;2.97;;
29550;SDS011;16488;52.396;10.696;2022-07-29T05:15:13;6.70;;;3.15;;
29550;SDS011;16488;52.396;10.696;2022-07-29T05:17:39;8.13;;;3.28;;
29550;SDS011;16488;52.396;10.696;2022-07-29T05:20:05;6.07;;;3.20;;
29550;SDS011;16488;52.396;10.696;2022-07-29T05:22:32;11.27;;;3.22;;
29550;SDS011;16488;52.396;10.696;2022-07-29T05:24:57;13.33;;;3.43;;
29550;SDS011;16488;52.396;10.696;2022-07-29T05:27:23;7.10;;;3.27;;
29550;SDS011;16488;52.396;10.696;2022-07-29T05:29:48;13.03;;;3.00;;
29550;SDS011;16488;52.396;10.696;2022-07-29T05:32:14;6.67;;;3.00;;
29550;SDS011;16488;52.396;10.696;2022-07-29T05:34:40;6.63;;;2.90;;
29550;SDS011;16488;52.396;10.696;2022-07-29T05:37:06;11.32;;;4.85;;
29550;SDS011;16488;52.396;10.696;2022-07-29T05:39:31;11.60;;;3.77;;
29550;SDS011;16488;52.396;10.696;2022-07-29T05:41:57;10.07;;;4.10;;
29550;SDS011;16488;52.396;10.696;2022-07-29T05:44:22;11.38;;;3.30;;
29550;SDS011;16488;52.396;10.696;2022-07-29T05:46:48;10.50;;;3.83;;
29550;SDS011;16488;52.396;10.696;2022-07-29T05:49:14;9.87;;;3.93;;
29550;SDS011;16488;52.396;10.696;2022-07-29T05:51:39;7.20;;;3.50;;
29550;SDS011;16488;52.396;10.696;2022-07-29T05:54:05;11.57;;;4.10;;
29550;SDS011;16488;52.396;10.696;2022-07-29T05:56:31;10.55;;;3.80;;
29550;SDS011;16488;52.396;10.696;2022-07-29T05:58:56;11.13;;;4.40;;
29550;SDS011;16488;52.396;10.696;2022-07-29T06:01:22;8.37;;;3.87;;
29550;SDS011;16488;52.396;10.696;2022-07-29T06:03:47;10.27;;;3.70;;
29550;SDS011;16488;52.396;10.696;2022-07-29T06:06:13;8.60;;;3.92;;
29550;SDS011;16488;52.396;10.696;2022-07-29T06:08:38;9.10;;;4.43;;
29550;SDS011;16488;52.396;10.696;2022-07-29T06:11:05;6.82;;;3.85;;
29550;SDS011;16488;52.396;10.696;2022-07-29T06:13:32;6.63;;;3.55;;
29550;SDS011;16488;52.396;10.696;2022-07-29T06:15:57;8.18;;;4.28;;
29550;SDS011;16488;52.396;10.696;2022-07-29T06:18:23;8.90;;;4.30;;
29550;SDS011;16488;52.396;10.696;2022-07-29T06:20:52;7.33;;;3.83;;
29550;SDS011;16488;52.396;10.696;2022-07-29T06:23:18;7.72;;;3.80;;
29550;SDS011;16488;52.396;10.696;2022-07-29T06:25:44;7.80;;;3.95;;
29550;SDS011;16488;52.396;10.696;2022-07-29T06:28:10;7.72;;;3.55;;
29550;SDS011;16488;52.396;10.696;2022-07-29T06:33:02;8.10;;;3.47;;
29550;SDS011;16488;52.396;10.696;2022-07-29T06:35:29;10.80;;;4.35;;
29550;SDS011;16488;52.396;10.696;2022-07-29T06:37:55;8.27;;;3.60;;
29550;SDS011;16488;52.396;10.696;2022-07-29T06:40:20;6.60;;;3.78;;
29550;SDS011;16488;52.396;10.696;2022-07-29T06:43:05;8.20;;;3.47;;
29550;SDS011;16488;52.396;10.696;2022-07-29T06:45:33;10.55;;;3.70;;
29550;SDS011;16488;52.396;10.696;2022-07-29T06:48:00;8.13;;;3.55;;
29550;SDS011;16488;52.396;10.696;2022-07-29T06:50:25;9.33;;;4.17;;
29550;SDS011;16488;52.396;10.696;2022-07-29T06:52:51;7.50;;;3.50;;
29550;SDS011;16488;52.396;10.696;2022-07-29T06:55:17;6.50;;;3.37;;
29550;SDS011;16488;52.396;10.696;2022-07-29T06:57:44;13.75;;;3.75;;
29550;SDS011;16488;52.396;10.696;2022-07-29T07:00:11;6.47;;;4.07;;
29550;SDS011;16488;52.396;10.696;2022-07-29T07:02:37;8.80;;;3.80;;
29550;SDS011;16488;52.396;10.696;2022-07-29T07:05:03;10.90;;;3.63;;
29550;SDS011;16488;52.396;10.696;2022-07-29T07:07:30;7.88;;;3.45;;
29550;SDS011;16488;52.396;10.696;2022-07-29T07:09:56;7.35;;;4.03;;
29550;SDS011;16488;52.396;10.696;2022-07-29T07:12:21;8.40;;;3.97;;
29550;SDS011;16488;52.396;10.696;2022-07-29T07:14:47;6.73;;;3.77;;
29550;SDS011;16488;52.396;10.696;2022-07-29T07:17:13;9.90;;;3.92;;
29550;SDS011;16488;52.396;10.696;2022-07-29T07:19:38;7.28;;;4.32;;
29550;SDS011;16488;52.396;10.696;2022-07-29T07:22:04;5.22;;;3.05;;
29550;SDS011;16488;52.396;10.696;2022-07-29T07:24:30;6.28;;;3.30;;
29550;SDS011;16488;52.396;10.696;2022-07-29T07:26:56;7.63;;;3.70;;
29550;SDS011;16488;52.396;10.696;2022-07-29T07:29:21;8.27;;;3.75;;
29550;SDS011;16488;52.396;10.696;2022-07-29T07:31:47;12.10;;;4.13;;
29550;SDS011;16488;52.396;10.696;2022-07-29T07:34:12;9.43;;;3.78;;
29550;SDS011;16488;52.396;10.696;2022-07-29T07:36:38;8.03;;;3.53;;
29550;SDS011;16488;52.396;10.696;2022-07-29T07:39:03;11.70;;;3.60;;
29550;SDS011;16488;52.396;10.696;2022-07-29T07:41:30;11.30;;;3.75;;
29550;SDS011;16488;52.396;10.696;2022-07-29T07:43:55;10.53;;;3.47;;
29550;SDS011;16488;52.396;10.696;2022-07-29T07:46:21;13.50;;;4.10;;
29550;SDS011;16488;52.396;10.696;2022-07-29T07:48:47;10.13;;;3.43;;
29550;SDS011;16488;52.396;10.696;2022-07-29T07:51:12;10.60;;;3.97;;
29550;SDS011;16488;52.396;10.696;2022-07-29T07:53:38;13.38;;;3.42;;
29550;SDS011;16488;52.396;10.696;2022-07-29T07:56:03;7.20;;;3.17;;
29550;SDS011;16488;52.396;10.696;2022-07-29T07:58:31;16.75;;;3.50;;
29550;SDS011;16488;52.396;10.696;2022-07-29T08:00:56;7.38;;;3.22;;
29550;SDS011;16488;52.396;10.696;2022-07-29T08:03:22;10.50;;;3.28;;
29550;SDS011;16488;52.396;10.696;2022-07-29T08:05:48;5.45;;;3.17;;
29550;SDS011;16488;52.396;10.696;2022-07-29T08:08:15;15.10;;;3.08;;
29550;SDS011;16488;52.396;10.696;2022-07-29T08:10:41;7.97;;;3.67;;
29550;SDS011;16488;52.396;10.696;2022-07-29T08:13:21;4.80;;;2.95;;
29550;SDS011;16488;52.396;10.696;2022-07-29T08:15:47;11.55;;;3.58;;
29550;SDS011;16488;52.396;10.696;2022-07-29T08:18:22;13.23;;;3.97;;
29550;SDS011;16488;52.396;10.696;2022-07-29T08:20:51;10.25;;;3.45;;
29550;SDS011;16488;52.396;10.696;2022-07-29T08:23:18;8.45;;;3.10;;
29550;SDS011;16488;52.396;10.696;2022-07-29T08:25:44;5.72;;;3.67;;
29550;SDS011;16488;52.396;10.696;2022-07-29T08:28:10;10.35;;;3.97;;
29550;SDS011;16488;52.396;10.696;2022-07-29T08:30:35;6.33;;;3.00;;
29550;SDS011;16488;52.396;10.696;2022-07-29T08:33:01;7.50;;;2.60;;
29550;SDS011;16488;52.396;10.696;2022-07-29T08:35:27;9.70;;;3.65;;
29550;SDS011;16488;52.396;10.696;2022-07-29T08:37:53;7.53;;;2.80;;
29550;SDS011;16488;52.396;10.696;2022-07-29T08:40:19;9.00;;;3.50;;
29550;SDS011;16488;52.396;10.696;2022-07-29T08:45:11;6.57;;;3.25;;
29550;SDS011;16488;52.396;10.696;2022-07-29T08:47:40;7.75;;;3.60;;
29550;SDS011;16488;52.396;10.696;2022-07-29T08:50:07;9.55;;;3.28;;
29550;SDS011;16488;52.396;10.696;2022-07-29T08:52:35;10.45;;;3.38;;
29550;SDS011;16488;52.396;10.696;2022-07-29T08:55:02;10.52;;;3.50;;
29550;SDS011;16488;52.396;10.696;2022-07-29T08:57:29;7.97;;;3.55;;
29550;SDS011;16488;52.396;10.696;2022-07-29T08:59:55;7.28;;;3.10;;
29550;SDS011;16488;52.396;10.696;2022-07-29T09:02:24;8.73;;;3.33;;
29550;SDS011;16488;52.396;10.696;2022-07-29T09:04:54;13.73;;;3.75;;
29550;SDS011;16488;52.396;10.696;2022-07-29T09:07:22;9.23;;;3.30;;
29550;SDS011;16488;52.396;10.696;2022-07-29T09:09:49;7.93;;;3.42;;
29550;SDS011;16488;52.396;10.696;2022-07-29T09:12:15;8.15;;;3.33;;
29550;SDS011;16488;52.396;10.696;2022-07-29T09:14:41;10.50;;;3.33;;
29550;SDS011;16488;52.396;10.696;2022-07-29T09:17:07;12.93;;;3.40;;
29550;SDS011;16488;52.396;10.696;2022-07-29T09:19:34;10.57;;;3.85;;
29550;SDS011;16488;52.396;10.696;2022-07-29T09:22:02;10.93;;;2.97;;
29550;SDS011;16488;52.396;10.696;2022-07-29T09:27:05;9.27;;;3.00;;
29550;SDS011;16488;52.396;10.696;2022-07-29T09:29:57;6.63;;;3.28;;
29550;SDS011;16488;52.396;10.696;2022-07-29T09:32:34;9.35;;;2.88;;
29550;SDS011;16488;52.396;10.696;2022-07-29T09:35:21;6.03;;;2.58;;
29550;SDS011;16488;52.396;10.696;2022-07-29T09:37:49;10.38;;;3.33;;
29550;SDS011;16488;52.396;10.696;2022-07-29T09:42:43;7.50;;;3.20;;
29550;SDS011;16488;52.396;10.696;2022-07-29T09:45:10;9.40;;;2.70;;
29550;SDS011;16488;52.396;10.696;2022-07-29T09:47:40;7.25;;;3.15;;
29550;SDS011;16488;52.396;10.696;2022-07-29T09:50:09;7.05;;;3.95;;
29550;SDS011;16488;52.396;10.696;2022-07-29T09:52:44;7.78;;;2.50;;
29550;SDS011;16488;52.396;10.696;2022-07-29T09:55:12;5.65;;;2.72;;
29550;SDS011;16488;52.396;10.696;2022-07-29T09:57:38;10.25;;;3.00;;
29550;SDS011;16488;52.396;10.696;2022-07-29T10:00:05;7.63;;;2.53;;
29550;SDS011;16488;52.396;10.696;2022-07-29T10:02:32;5.57;;;3.03;;
29550;SDS011;16488;52.396;10.696;2022-07-29T10:05:00;7.72;;;3.17;;
29550;SDS011;16488;52.396;10.696;2022-07-29T10:07:26;6.60;;;2.90;;
29550;SDS011;16488;52.396;10.696;2022-07-29T10:10:26;10.48;;;3.63;;
29550;SDS011;16488;52.396;10.696;2022-07-29T10:12:57;5.82;;;2.95;;
29550;SDS011;16488;52.396;10.696;2022-07-29T10:15:27;5.85;;;2.95;;
29550;SDS011;16488;52.396;10.696;2022-07-29T10:17:55;6.35;;;3.35;;
29550;SDS011;16488;52.396;10.696;2022-07-29T10:20:22;10.93;;;3.08;;
29550;SDS011;16488;52.396;10.696;2022-07-29T10:22:49;8.60;;;3.03;;
29550;SDS011;16488;52.396;10.696;2022-07-29T10:25:16;7.85;;;3.15;;
29550;SDS011;16488;52.396;10.696;2022-07-29T10:27:43;14.65;;;3.30;;
29550;SDS011;16488;52.396;10.696;2022-07-29T10:30:13;4.85;;;2.72;;
29550;SDS011;16488;52.396;10.696;2022-07-29T10:43:35;3.85;;;2.58;;
29550;SDS011;16488;52.396;10.696;2022-07-29T10:46:03;7.45;;;2.90;;
29550;SDS011;16488;52.396;10.696;2022-07-29T10:48:30;4.30;;;2.78;;
29550;SDS011;16488;52.396;10.696;2022-07-29T10:50:57;10.27;;;3.05;;
29550;SDS011;16488;52.396;10.696;2022-07-29T10:53:25;7.70;;;2.42;;
29550;SDS011;16488;52.396;10.696;2022-07-29T10:56:28;6.38;;;3.15;;
29550;SDS011;16488;52.396;10.696;2022-07-29T11:01:48;7.70;;;2.95;;
29550;SDS011;16488;52.396;10.696;2022-07-29T11:04:15;10.20;;;2.95;;
29550;SDS011;16488;52.396;10.696;2022-07-29T11:09:29;11.02;;;2.67;;
29550;SDS011;16488;52.396;10.696;2022-07-29T11:11:55;7.20;;;2.85;;
29550;SDS011;16488;52.396;10.696;2022-07-29T11:17:25;7.90;;;2.40;;
29550;SDS011;16488;52.396;10.696;2022-07-29T11:19:51;5.70;;;2.47;;
29550;SDS011;16488;52.396;10.696;2022-07-29T11:22:35;9.80;;;3.22;;
29550;SDS011;16488;52.396;10.696;2022-07-29T11:25:15;7.60;;;2.70;;
29550;SDS011;16488;52.396;10.696;2022-07-29T11:27:41;6.03;;;2.38;;
29550;SDS011;16488;52.396;10.696;2022-07-29T11:30:07;3.28;;;2.40;;
29550;SDS011;16488;52.396;10.696;2022-07-29T11:32:35;4.72;;;2.50;;
29550;SDS011;16488;52.396;10.696;2022-07-29T11:37:47;6.50;;;2.50;;
29550;SDS011;16488;52.396;10.696;2022-07-29T11:43:46;8.18;;;2.72;;
29550;SDS011;16488;52.396;10.696;2022-07-29T11:46:13;10.63;;;2.63;;
29550;SDS011;16488;52.396;10.696;2022-07-29T11:48:42;14.52;;;3.58;;
29550;SDS011;16488;52.396;10.696;2022-07-29T11:51:09;8.32;;;3.28;;
29550;SDS011;16488;52.396;10.696;2022-07-29T11:53:36;7.40;;;2.70;;
29550;SDS011;16488;52.396;10.696;2022-07-29T11:56:03;6.07;;;2.33;;
29550;SDS011;16488;52.396;10.696;2022-07-29T11:58:32;8.00;;;2.65;;
29550;SDS011;16488;52.396;10.696;2022-07-29T12:00:58;4.80;;;2.80;;
29550;SDS011;16488;52.396;10.696;2022-07-29T12:03:26;9.45;;;2.63;;
29550;SDS011;16488;52.396;10.696;2022-07-29T12:05:52;14.18;;;3.40;;
29550;SDS011;16488;52.396;10.696;2022-07-29T12:08:19;7.20;;;2.42;;
29550;SDS011;16488;52.396;10.696;2022-07-29T12:10:51;6.38;;;2.60;;
29550;SDS011;16488;52.396;10.696;2022-07-29T12:13:18;9.43;;;2.63;;
29550;SDS011;16488;52.396;10.696;2022-07-29T12:15:55;6.32;;;1.95;;
29550;SDS011;16488;52.396;10.696;2022-07-29T12:18:25;8.70;;;2.33;;
29550;SDS011;16488;52.396;10.696;2022-07-29T12:21:01;5.22;;;2.70;;
29550;SDS011;16488;52.396;10.696;2022-07-29T12:23:28;15.13;;;2.83;;
29550;SDS011;16488;52.396;10.696;2022-07-29T12:25:55;7.88;;;2.80;;
29550;SDS011;16488;52.396;10.696;2022-07-29T12:28:20;6.95;;;2.67;;
29550;SDS011;16488;52.396;10.696;2022-07-29T12:30:48;10.30;;;2.95;;
29550;SDS011;16488;52.396;10.696;2022-07-29T12:33:15;7.70;;;2.42;;
29550;SDS011;16488;52.396;10.696;2022-07-29T12:35:44;12.27;;;2.42;;
29550;SDS011;16488;52.396;10.696;2022-07-29T12:38:13;4.95;;;2.33;;
29550;SDS011;16488;52.396;10.696;2022-07-29T12:40:39;6.90;;;2.35;;
29550;SDS011;16488;52.396;10.696;2022-07-29T12:43:09;2.47;;;1.83;;
29550;SDS011;16488;52.396;10.696;2022-07-29T12:45:35;5.25;;;2.20;;
29550;SDS011;16488;52.396;10.696;2022-07-29T12:48:02;3.97;;;2.20;;
29550;SDS011;16488;52.396;10.696;2022-07-29T12:50:28;4.07;;;2.13;;
29550;SDS011;16488;52.396;10.696;2022-07-29T12:52:54;11.77;;;2.50;;
29550;SDS011;16488;52.396;10.696;2022-07-29T12:55:37;8.05;;;2.05;;
29550;SDS011;16488;52.396;10.696;2022-07-29T12:58:04;6.22;;;2.20;;
29550;SDS011;16488;52.396;10.696;2022-07-29T13:00:29;6.55;;;2.08;;
29550;SDS011;16488;52.396;10.696;2022-07-29T13:02:56;5.82;;;2.42;;
29550;SDS011;16488;52.396;10.696;2022-07-29T13:05:23;10.18;;;2.95;;
29550;SDS011;16488;52.396;10.696;2022-07-29T13:07:49;6.70;;;2.25;;
29550;SDS011;16488;52.396;10.696;2022-07-29T13:10:17;4.38;;;2.30;;
29550;SDS011;16488;52.396;10.696;2022-07-29T13:15:30;5.53;;;2.53;;
29550;SDS011;16488;52.396;10.696;2022-07-29T13:17:56;4.65;;;2.03;;
29550;SDS011;16488;52.396;10.696;2022-07-29T13:20:25;4.28;;;2.30;;
29550;SDS011;16488;52.396;10.696;2022-07-29T13:22:55;5.68;;;2.25;;
29550;SDS011;16488;52.396;10.696;2022-07-29T13:25:25;10.23;;;2.60;;
29550;SDS011;16488;52.396;10.696;2022-07-29T13:27:55;5.25;;;1.80;;
29550;SDS011;16488;52.396;10.696;2022-07-29T13:30:21;4.20;;;2.00;;
29550;SDS011;16488;52.396;10.696;2022-07-29T13:32:47;4.57;;;1.95;;
29550;SDS011;16488;52.396;10.696;2022-07-29T13:35:14;7.18;;;2.17;;
29550;SDS011;16488;52.396;10.696;2022-07-29T13:37:39;6.07;;;2.17;;
29550;SDS011;16488;52.396;10.696;2022-07-29T13:40:06;10.82;;;2.17;;
29550;SDS011;16488;52.396;10.696;2022-07-29T13:42:33;7.00;;;2.22;;
29550;SDS011;16488;52.396;10.696;2022-07-29T13:44:59;7.32;;;2.58;;
29550;SDS011;16488;52.396;10.696;2022-07-29T13:47:25;17.50;;;3.35;;
29550;SDS011;16488;52.396;10.696;2022-07-29T13:52:18;12.23;;;2.42;;
29550;SDS011;16488;52.396;10.696;2022-07-29T13:57:10;10.38;;;2.00;;
29550;SDS011;16488;52.396;10.696;2022-07-29T13:59:36;5.40;;;1.92;;
29550;SDS011;16488;52.396;10.696;2022-07-29T14:02:01;7.05;;;2.60;;
29550;SDS011;16488;52.396;10.696;2022-07-29T14:04:27;3.22;;;2.00;;
29550;SDS011;16488;52.396;10.696;2022-07-29T14:06:53;4.72;;;1.83;;
29550;SDS011;16488;52.396;10.696;2022-07-29T14:09:19;5.78;;;2.33;;
29550;SDS011;16488;52.396;10.696;2022-07-29T14:14:11;4.67;;;2.30;;
29550;SDS011;16488;52.396;10.696;2022-07-29T14:16:37;7.30;;;2.40;;
29550;SDS011;16488;52.396;10.696;2022-07-29T14:19:03;5.28;;;2.28;;
29550;SDS011;16488;52.396;10.696;2022-07-29T14:21:28;11.23;;;2.45;;
29550;SDS011;16488;52.396;10.696;2022-07-29T14:23:55;5.40;;;3.25;;
29550;SDS011;16488;52.396;10.696;2022-07-29T14:26:21;4.47;;;2.22;;
29550;SDS011;16488;52.396;10.696;2022-07-29T14:31:13;4.40;;;2.55;;
29550;SDS011;16488;52.396;10.696;2022-07-29T14:33:38;10.00;;;2.58;;
29550;SDS011;16488;52.396;10.696;2022-07-29T14:36:04;4.25;;;1.95;;
29550;SDS011;16488;52.396;10.696;2022-07-29T14:38:30;5.15;;;1.98;;
29550;SDS011;16488;52.396;10.696;2022-07-29T14:40:55;3.70;;;2.15;;
29550;SDS011;16488;52.396;10.696;2022-07-29T14:43:21;6.45;;;2.20;;
29550;SDS011;16488;52.396;10.696;2022-07-29T14:45:46;7.20;;;2.20;;
29550;SDS011;16488;52.396;10.696;2022-07-29T14:48:12;8.02;;;2.42;;
29550;SDS011;16488;52.396;10.696;2022-07-29T14:50:37;10.88;;;2.22;;
29550;SDS011;16488;52.396;10.696;2022-07-29T14:53:03;6.45;;;2.15;;
29550;SDS011;16488;52.396;10.696;2022-07-29T14:55:29;5.97;;;1.98;;
29550;SDS011;16488;52.396;10.696;2022-07-29T14:57:55;9.25;;;2.33;;
29550;SDS011;16488;52.396;10.696;2022-07-29T15:00:20;5.50;;;2.28;;
29550;SDS011;16488;52.396;10.696;2022-07-29T15:02:47;7.47;;;2.47;;
29550;SDS011;16488;52.396;10.696;2022-07-29T15:05:13;21.25;;;3.10;;
29550;SDS011;16488;52.396;10.696;2022-07-29T15:07:38;8.77;;;2.65;;
29550;SDS011;16488;52.396;10.696;2022-07-29T15:10:04;6.18;;;2.28;;
29550;SDS011;16488;52.396;10.696;2022-07-29T15:12:30;4.35;;;2.20;;
29550;SDS011;16488;52.396;10.696;2022-07-29T15:14:56;6.53;;;2.28;;
29550;SDS011;16488;52.396;10.696;2022-07-29T15:17:22;4.63;;;2.67;;
29550;SDS011;16488;52.396;10.696;2022-07-29T15:19:47;6.70;;;2.17;;
29550;SDS011;16488;52.396;10.696;2022-07-29T15:22:13;5.78;;;2.30;;
29550;SDS011;16488;52.396;10.696;2022-07-29T15:24:39;5.03;;;2.42;;
29550;SDS011;16488;52.396;10.696;2022-07-29T15:27:05;6.25;;;2.50;;
29550;SDS011;16488;52.396;10.696;2022-07-29T15:29:30;5.57;;;2.30;;
29550;SDS011;16488;52.396;10.696;2022-07-29T15:31:56;6.70;;;2.30;;
29550;SDS011;16488;52.396;10.696;2022-07-29T15:34:21;7.40;;;2.70;;
29550;SDS011;16488;52.396;10.696;2022-07-29T15:39:14;5.88;;;2.50;;
29550;SDS011;16488;52.396;10.696;2022-07-29T15:41:40;5.07;;;2.10;;
29550;SDS011;16488;52.396;10.696;2022-07-29T15:44:06;5.13;;;2.42;;
29550;SDS011;16488;52.396;10.696;2022-07-29T15:46:31;6.82;;;2.88;;